createdAt,value
2022-08-05T00:00:46.326Z,100900.81
2022-08-05T00:01:54.868Z,100897.88
2022-08-05T00:03:09.048Z,100901.41
2022-08-05T00:04:18.316Z,100899.72
2022-08-05T00:05:27.085Z,100898.88
2022-08-05T00:06:43.257Z,100904.28
2022-08-05T00:07:59.837Z,100900.56
2022-08-05T00:09:05.177Z,100896.00
2022-08-05T00:10:14.927Z,100902.22
2022-08-05T00:11:20.498Z,100897.66
2022-08-05T00:12:32.012Z,100907.00
2022-08-05T00:13:38.998Z,100905.97
2022-08-05T00:14:43.929Z,100905.97
2022-08-05T00:15:55.110Z,100915.09
2022-08-05T00:16:59.061Z,100916.78
2022-08-05T00:18:04.329Z,100921.13
2022-08-05T00:19:07.413Z,100908.69
2022-08-05T00:20:09.896Z,100908.69
2022-08-05T00:21:14.417Z,100905.97
2022-08-05T00:22:16.280Z,100915.94
2022-08-05T00:23:44.510Z,100915.72
2022-08-05T00:24:43.239Z,100905.97
2022-08-05T00:25:45.912Z,100906.38
2022-08-05T00:26:51.796Z,100912.78
2022-08-05T00:27:53.853Z,100904.03
2022-08-05T00:28:57.935Z,100909.63
2022-08-05T00:30:03.234Z,100912.50
2022-08-05T00:31:07.684Z,100917.09
2022-08-05T00:32:15.523Z,100919.13
2022-08-05T00:34:54.291Z,100912.00
2022-08-05T00:34:56.731Z,100914.94
2022-08-05T00:36:16.199Z,100916.94
2022-08-05T00:37:25.985Z,100904.63
2022-08-05T00:38:28.689Z,100904.63
2022-08-05T00:39:36.968Z,100896.34
2022-08-05T00:40:53.180Z,100903.63
2022-08-05T00:41:56.039Z,100905.69
2022-08-05T00:42:59.635Z,100892.34
2022-08-05T00:44:02.945Z,100890.50
2022-08-05T00:45:11.452Z,100891.50
2022-08-05T00:46:14.612Z,100887.53
2022-08-05T00:47:17.572Z,100896.84
2022-08-05T00:48:31.240Z,100888.94
2022-08-05T00:49:44.351Z,100891.81
2022-08-05T00:50:53.918Z,100894.06
2022-08-05T00:51:55.543Z,100899.47
2022-08-05T00:52:58.262Z,100900.50
2022-08-05T00:54:03.079Z,100902.16
2022-08-05T00:55:06.668Z,100908.41
2022-08-05T00:56:08.692Z,100914.81
2022-08-05T00:57:11.301Z,100910.47
2022-08-05T00:58:16.755Z,100909.63
2022-08-05T00:59:21.802Z,100908.78
2022-08-05T01:00:25.939Z,100907.09
2022-08-05T01:01:42.729Z,100907.94
2022-08-05T01:02:50.279Z,100907.09
2022-08-05T01:03:53.133Z,100909.63
2022-08-05T01:04:55.258Z,100912.94
2022-08-05T01:05:58.185Z,100910.09
2022-08-05T01:07:00.353Z,100909.25
2022-08-05T01:08:30.251Z,100909.25
2022-08-05T01:09:30.591Z,100913.78
2022-08-05T01:10:38.574Z,100920.03
2022-08-05T01:11:42.378Z,100909.25
2022-08-05T01:13:03.211Z,100903.84
2022-08-05T01:14:15.807Z,100902.44
2022-08-05T01:15:35.792Z,100896.84
2022-08-05T01:16:48.282Z,100901.03
2022-08-05T01:17:53.806Z,100905.41
2022-08-05T01:19:01.639Z,100897.31
2022-08-05T01:20:12.080Z,100907.06
2022-08-05T01:21:38.049Z,100906.06
2022-08-05T01:22:59.616Z,100905.84
2022-08-05T01:24:35.684Z,100913.78
2022-08-05T01:26:04.378Z,100909.22
2022-08-05T01:27:17.644Z,100904.00
2022-08-05T01:28:30.522Z,100905.84
2022-08-05T01:29:37.723Z,100896.91
2022-08-05T01:30:53.745Z,100890.69
2022-08-05T01:32:03.179Z,100890.88
2022-08-05T01:33:09.185Z,100892.56
2022-08-05T01:34:16.305Z,100896.91
2022-08-05T01:35:50.607Z,100902.13
2022-08-05T01:36:51.724Z,100916.47
2022-08-05T01:37:56.519Z,100916.47
2022-08-05T01:39:03.133Z,100923.53
2022-08-05T01:40:07.180Z,100930.63
2022-08-05T01:41:10.401Z,100919.81
2022-08-05T01:42:15.312Z,100921.50
2022-08-05T01:43:22.068Z,100923.16
2022-08-05T01:44:31.279Z,100923.81
2022-08-05T01:45:43.224Z,100930.91
2022-08-05T01:46:46.358Z,100935.25
2022-08-05T01:47:54.591Z,100934.25
2022-08-05T01:48:58.897Z,100947.34
2022-08-05T01:50:03.758Z,100949.03
2022-08-05T01:51:12.502Z,100950.69
2022-08-05T01:52:17.866Z,100954.22
2022-08-05T01:53:54.868Z,100965.03
2022-08-05T01:54:53.566Z,100977.31
2022-08-05T01:56:04.440Z,100981.69
2022-08-05T01:58:10.382Z,101001.44
2022-08-05T01:58:40.909Z,101004.31
2022-08-05T01:59:52.498Z,101027.63
2022-08-05T02:00:56.986Z,101033.22
2022-08-05T02:02:02.487Z,101033.03
2022-08-05T02:03:31.334Z,101049.22
2022-08-05T02:04:37.567Z,101041.31
2022-08-05T02:05:44.690Z,101038.81
2022-08-05T02:06:51.585Z,101037.78
2022-08-05T02:08:00.313Z,101038.81
2022-08-05T02:09:07.039Z,101039.66
2022-08-05T02:10:09.800Z,101043.34
2022-08-05T02:11:23.713Z,101043.56
2022-08-05T02:12:32.966Z,101042.91
2022-08-05T02:13:53.538Z,101040.41
2022-08-05T02:15:03.466Z,101042.44
2022-08-05T02:16:16.475Z,101046.34
2022-08-05T02:18:28.478Z,101037.78
2022-08-05T02:18:53.591Z,101029.41
2022-08-05T02:20:00.654Z,101021.88
2022-08-05T02:21:14.869Z,101018.91
2022-08-05T02:22:26.545Z,101011.59
2022-08-05T02:23:33.691Z,101016.31
2022-08-05T02:24:39.989Z,101020.03
2022-08-05T02:25:49.529Z,101009.19
2022-08-05T02:27:00.115Z,101008.28
2022-08-05T02:28:14.579Z,101012.50
2022-08-05T02:29:24.270Z,101012.59
2022-08-05T02:30:35.097Z,101017.69
2022-08-05T02:31:38.231Z,101028.16
2022-08-05T02:32:41.280Z,101033.91
2022-08-05T02:33:57.207Z,101043.00
2022-08-05T02:35:13.375Z,101057.47
2022-08-05T02:36:19.109Z,101053.78
2022-08-05T02:37:23.289Z,101052.09
2022-08-05T02:38:28.691Z,101042.81
2022-08-05T02:39:41.306Z,101038.94
2022-08-05T02:40:45.029Z,101042.63
2022-08-05T02:42:00.831Z,101056.13
2022-08-05T02:43:07.289Z,101050.06
2022-08-05T02:44:13.061Z,101052.78
2022-08-05T02:45:16.388Z,101055.47
2022-08-05T02:46:27.376Z,101055.81
2022-08-05T02:48:06.792Z,101054.13
2022-08-05T02:48:55.947Z,101045.53
2022-08-05T02:49:59.269Z,101031.50
2022-08-05T02:51:04.230Z,101023.75
2022-08-05T02:52:09.703Z,101021.69
2022-08-05T02:53:18.976Z,101021.34
2022-08-05T02:54:35.651Z,101031.75
2022-08-05T02:55:52.114Z,101028.06
2022-08-05T02:56:57.363Z,101016.91
2022-08-05T02:58:11.718Z,101011.13
2022-08-05T02:59:27.121Z,101007.06
2022-08-05T03:00:30.230Z,100985.50
2022-08-05T03:01:35.898Z,100961.22
2022-08-05T03:02:39.986Z,100938.97
2022-08-05T03:04:02.535Z,100931.25
2022-08-05T03:05:10.256Z,100910.72
2022-08-05T03:06:54.785Z,100910.06
2022-08-05T03:07:48.421Z,100890.34
2022-08-05T03:08:58.682Z,100887.00
2022-08-05T03:10:03.159Z,100900.66
2022-08-05T03:11:56.985Z,100886.53
2022-08-05T03:12:41.163Z,100882.81
2022-08-05T03:13:51.798Z,100882.00
2022-08-05T03:15:07.445Z,100874.91
2022-08-05T03:16:10.985Z,100874.06
2022-08-05T03:17:20.240Z,100878.81
2022-08-05T03:18:29.798Z,100879.00
2022-08-05T03:19:34.044Z,100879.84
2022-08-05T03:20:37.910Z,100878.19
2022-08-05T03:21:49.624Z,100897.06
2022-08-05T03:22:52.453Z,100895.16
2022-08-05T03:23:55.559Z,100898.69
2022-08-05T03:25:11.528Z,100902.25
2022-08-05T03:26:31.450Z,100901.69
2022-08-05T03:27:59.092Z,100900.66
2022-08-05T03:28:56.896Z,100894.44
2022-08-05T03:30:08.237Z,100903.34
2022-08-05T03:31:25.858Z,100908.75
2022-08-05T03:32:36.341Z,100921.88
2022-08-05T03:33:52.662Z,100932.31
2022-08-05T03:34:54.939Z,100952.66
2022-08-05T03:35:59.385Z,100961.38
2022-08-05T03:37:02.705Z,100970.16
2022-08-05T03:38:04.339Z,100975.19
2022-08-05T03:39:13.142Z,100975.19
2022-08-05T03:40:31.373Z,100986.63
2022-08-05T03:41:45.173Z,100990.16
2022-08-05T03:42:52.399Z,100995.34
2022-08-05T03:44:09.663Z,101005.31
2022-08-05T03:45:22.792Z,101016.75
2022-08-05T03:46:26.777Z,101019.44
2022-08-05T03:47:35.215Z,101012.38
2022-08-05T03:48:39.651Z,101024.00
2022-08-05T03:49:51.268Z,101016.75
2022-08-05T03:52:35.496Z,101021.13
2022-08-05T03:52:50.352Z,101015.53
2022-08-05T03:55:54.023Z,101012.84
2022-08-05T03:56:01.608Z,101012.69
2022-08-05T03:56:50.942Z,101012.69
2022-08-05T03:57:55.749Z,101012.69
2022-08-05T03:59:02.309Z,101006.25
2022-08-05T04:00:08.027Z,101014.53
2022-08-05T04:01:13.009Z,101006.59
2022-08-05T04:02:17.554Z,101003.09
2022-08-05T04:04:09.884Z,100995.19
2022-08-05T04:05:09.620Z,100995.19
2022-08-05T04:06:12.472Z,100999.72
2022-08-05T04:07:15.628Z,100987.25
2022-08-05T04:08:30.134Z,100986.44
2022-08-05T04:09:39.006Z,100979.38
2022-08-05T04:10:57.163Z,100969.59
2022-08-05T04:11:59.760Z,100976.84
2022-08-05T04:13:03.510Z,100967.94
2022-08-05T04:14:07.062Z,100965.25
2022-08-05T04:15:15.735Z,100960.84
2022-08-05T04:16:24.922Z,100963.34
2022-08-05T04:17:55.419Z,100956.09
2022-08-05T04:18:53.908Z,100952.56
2022-08-05T04:19:58.714Z,100964.41
2022-08-05T04:21:01.473Z,100956.47
2022-08-05T04:22:08.041Z,100952.75
2022-08-05T04:23:16.077Z,100946.53
2022-08-05T04:24:19.481Z,100935.75
2022-08-05T04:25:57.999Z,100930.72
2022-08-05T04:26:48.001Z,100921.78
2022-08-05T04:27:58.111Z,100915.75
2022-08-05T04:29:07.449Z,100904.13
2022-08-05T04:30:10.213Z,100914.06
2022-08-05T04:31:12.914Z,100924.84
2022-08-05T04:32:14.488Z,100955.16
2022-08-05T04:33:54.829Z,100965.94
2022-08-05T04:34:46.581Z,100977.41
2022-08-05T04:36:10.651Z,100972.19
2022-08-05T04:37:10.904Z,100965.56
2022-08-05T04:38:15.477Z,100955.63
2022-08-05T04:39:17.434Z,100952.75
2022-08-05T04:40:20.759Z,100959.84
2022-08-05T04:41:22.323Z,100960.66
2022-08-05T04:42:39.701Z,100965.88
2022-08-05T04:43:48.236Z,100970.25
2022-08-05T04:44:55.498Z,100952.19
2022-08-05T04:45:57.655Z,100955.72
2022-08-05T04:47:09.677Z,100954.06
2022-08-05T04:48:27.672Z,100964.88
2022-08-05T04:49:38.925Z,100968.56
2022-08-05T04:51:02.736Z,100969.22
2022-08-05T04:52:11.723Z,100960.75
2022-08-05T04:53:16.776Z,100958.06
2022-08-05T04:54:19.671Z,100948.31
2022-08-05T04:56:05.044Z,100956.19
2022-08-05T04:56:44.961Z,100965.78
2022-08-05T04:57:48.007Z,100964.13
2022-08-05T04:58:54.676Z,100978.63
2022-08-05T04:59:57.474Z,100978.63
2022-08-05T05:01:01.718Z,100976.78
2022-08-05T05:02:07.035Z,100984.66
2022-08-05T05:03:29.400Z,100969.53
2022-08-05T05:04:47.857Z,100976.56
2022-08-05T05:06:40.020Z,100976.56
2022-08-05T05:07:17.159Z,100965.97
2022-08-05T05:08:30.226Z,100963.44
2022-08-05T05:09:33.447Z,100967.84
2022-08-05T05:10:42.071Z,100961.44
2022-08-05T05:12:02.906Z,100960.22
2022-08-05T05:13:04.820Z,100958.34
2022-08-05T05:14:08.594Z,100958.34
2022-08-05T05:15:11.099Z,100965.44
2022-08-05T05:16:13.700Z,100977.88
2022-08-05T05:17:22.791Z,100974.53
2022-08-05T05:18:33.193Z,100969.53
2022-08-05T05:19:36.839Z,100976.94
2022-08-05T05:20:47.337Z,100970.72
2022-08-05T05:21:55.665Z,100975.28
2022-08-05T05:23:00.733Z,100966.16
2022-08-05T05:24:10.860Z,100970.38
2022-08-05T05:25:16.586Z,100966.63
2022-08-05T05:26:28.637Z,100968.47
2022-08-05T05:27:45.220Z,100978.47
2022-08-05T05:28:47.891Z,100967.66
2022-08-05T05:30:05.037Z,100971.19
2022-08-05T05:31:08.846Z,100973.53
2022-08-05T05:32:12.589Z,100975.84
2022-08-05T05:33:23.439Z,100980.41
2022-08-05T05:34:26.703Z,100979.56
2022-08-05T05:35:34.289Z,100988.50
2022-08-05T05:36:40.763Z,100982.91
2022-08-05T05:38:00.305Z,100990.00
2022-08-05T05:39:04.659Z,100983.59
2022-08-05T05:40:14.826Z,100981.91
2022-08-05T05:41:17.560Z,100995.38
2022-08-05T05:42:20.873Z,100994.38
2022-08-05T05:43:56.872Z,100993.31
2022-08-05T05:44:46.805Z,100989.63
2022-08-05T05:45:49.391Z,101001.06
2022-08-05T05:46:51.160Z,101006.28
2022-08-05T05:48:06.679Z,100997.16
2022-08-05T05:49:22.309Z,100999.66
2022-08-05T05:50:26.711Z,101008.44
2022-08-05T05:51:29.011Z,101012.16
2022-08-05T05:52:52.983Z,101000.50
2022-08-05T05:53:58.598Z,101013.16
2022-08-05T05:55:02.265Z,101006.06
2022-08-05T05:56:09.519Z,101010.47
2022-08-05T05:57:13.584Z,101019.56
2022-08-05T05:58:21.532Z,101012.50
2022-08-05T05:59:33.197Z,101017.25
2022-08-05T06:00:45.916Z,101019.94
2022-08-05T06:01:57.487Z,101023.69
2022-08-05T06:03:02.180Z,101013.91
2022-08-05T06:04:04.096Z,101012.03
2022-08-05T06:05:10.485Z,101010.19
2022-08-05T06:06:18.088Z,101017.59
2022-08-05T06:07:22.507Z,101020.50
2022-08-05T06:08:44.523Z,101019.03
2022-08-05T06:10:01.368Z,101017.34
2022-08-05T06:11:07.498Z,101013.16
2022-08-05T06:12:09.591Z,101012.31
2022-08-05T06:13:14.562Z,101013.31
2022-08-05T06:14:17.166Z,101010.44
2022-08-05T06:15:23.982Z,101017.69
2022-08-05T06:16:29.202Z,101015.00
2022-08-05T06:17:53.075Z,101017.88
2022-08-05T06:18:57.072Z,101025.50
2022-08-05T06:20:02.975Z,101020.47
2022-08-05T06:21:04.887Z,101022.50
2022-08-05T06:22:10.785Z,101022.88
2022-08-05T06:23:12.459Z,101023.25
2022-08-05T06:24:16.339Z,101032.34
2022-08-05T06:25:59.804Z,101033.19
2022-08-05T06:26:51.643Z,101030.66
2022-08-05T06:28:12.790Z,101035.25
2022-08-05T06:29:42.965Z,101040.16
2022-08-05T06:30:39.356Z,101050.94
2022-08-05T06:31:42.979Z,101044.72
2022-08-05T06:32:48.177Z,101052.97
2022-08-05T06:34:06.956Z,101045.44
2022-08-05T06:35:15.403Z,101059.59
2022-08-05T06:36:25.933Z,101056.97
2022-08-05T06:37:57.394Z,101057.84
2022-08-05T06:38:53.588Z,101054.84
2022-08-05T06:39:57.158Z,101056.88
2022-08-05T06:40:59.906Z,101053.53
2022-08-05T06:42:04.133Z,101057.22
2022-08-05T06:43:07.079Z,101055.56
2022-08-05T06:44:30.336Z,101062.97
2022-08-05T06:46:02.882Z,101060.47
2022-08-05T06:46:56.199Z,101058.63
2022-08-05T06:48:36.216Z,101059.63
2022-08-05T06:49:21.465Z,101063.16
2022-08-05T06:50:42.053Z,101065.03
2022-08-05T06:51:44.716Z,101067.53
2022-08-05T06:52:58.656Z,101069.41
2022-08-05T06:54:05.809Z,101061.31
2022-08-05T06:55:11.909Z,101064.81
2022-08-05T06:56:26.625Z,101067.72
2022-08-05T06:57:57.385Z,101067.72
2022-08-05T06:58:52.771Z,101071.06
2022-08-05T06:59:58.316Z,101066.34
2022-08-05T07:01:01.227Z,101066.00
2022-08-05T07:02:02.997Z,101073.22
2022-08-05T07:03:09.746Z,101072.03
2022-08-05T07:04:13.923Z,101072.69
2022-08-05T07:05:18.841Z,101067.97
2022-08-05T07:06:23.218Z,101072.34
2022-08-05T07:07:43.350Z,101074.00
2022-08-05T07:08:47.458Z,101077.38
2022-08-05T07:09:55.489Z,101077.38
2022-08-05T07:11:02.371Z,101077.03
2022-08-05T07:12:04.372Z,101081.88
2022-08-05T07:13:54.288Z,101087.41
2022-08-05T07:15:07.048Z,101082.63
2022-08-05T07:17:56.611Z,101083.31
2022-08-05T07:18:00.227Z,101091.19
2022-08-05T07:19:09.833Z,101091.38
2022-08-05T07:22:00.733Z,101100.13
2022-08-05T07:22:56.614Z,101100.13
2022-08-05T07:23:58.352Z,101106.53
2022-08-05T07:25:23.027Z,101108.22
2022-08-05T07:26:28.569Z,101103.31
2022-08-05T07:27:58.317Z,101111.19
2022-08-05T07:28:52.902Z,101108.34
2022-08-05T07:30:25.348Z,101112.53
2022-08-05T07:31:20.346Z,101109.81
2022-08-05T07:32:43.160Z,101110.66
2022-08-05T07:33:46.527Z,101113.56
2022-08-05T07:34:49.025Z,101120.81
2022-08-05T07:36:05.634Z,101115.59
2022-08-05T07:37:23.313Z,101124.69
2022-08-05T07:38:33.580Z,101128.22
2022-08-05T07:40:25.821Z,101125.03
2022-08-05T07:41:02.904Z,101132.31
2022-08-05T07:42:31.804Z,101133.50
2022-08-05T07:43:35.771Z,101139.09
2022-08-05T07:44:39.747Z,101133.84
2022-08-05T07:45:57.575Z,101135.53
2022-08-05T07:47:01.238Z,101133.19
2022-08-05T07:48:09.825Z,101139.59
2022-08-05T07:49:13.643Z,101141.66
2022-08-05T07:50:16.526Z,101136.25
2022-08-05T07:51:23.629Z,101139.97
2022-08-05T07:52:39.795Z,101145.34
2022-08-05T07:53:50.455Z,101144.50
2022-08-05T07:54:54.423Z,101160.53
2022-08-05T07:56:06.539Z,101155.78
2022-08-05T07:57:41.951Z,101151.72
2022-08-05T07:58:58.667Z,101159.28
2022-08-05T08:00:01.733Z,101154.69
2022-08-05T08:01:13.122Z,101164.47
2022-08-05T08:02:18.400Z,101167.19
2022-08-05T08:03:21.577Z,101161.78
2022-08-05T08:04:37.355Z,101165.81
2022-08-05T08:05:47.265Z,101168.50
2022-08-05T08:06:52.395Z,101169.88
2022-08-05T08:07:59.591Z,101167.19
2022-08-05T08:09:02.101Z,101180.00
2022-08-05T08:10:06.224Z,101171.25
2022-08-05T08:11:09.581Z,101172.09
2022-08-05T08:12:37.350Z,101173.94
2022-08-05T08:13:42.689Z,101184.44
2022-08-05T08:14:51.449Z,101179.91
2022-08-05T08:16:35.232Z,101177.56
2022-08-05T08:17:16.466Z,101182.97
2022-08-05T08:18:20.927Z,101183.16
2022-08-05T08:20:23.440Z,101188.56
2022-08-05T08:21:02.504Z,101188.19
2022-08-05T08:22:05.786Z,101185.16
2022-08-05T08:24:01.652Z,101199.28
2022-08-05T08:24:41.502Z,101199.13
2022-08-05T08:26:00.108Z,101207.50
2022-08-05T08:27:07.134Z,101193.50
2022-08-05T08:28:18.532Z,101211.34
2022-08-05T08:30:04.309Z,101201.88
2022-08-05T08:30:48.064Z,101203.38
2022-08-05T08:31:53.042Z,101195.28
2022-08-05T08:32:54.689Z,101197.63
2022-08-05T08:33:57.355Z,101202.38
2022-08-05T08:34:59.515Z,101203.56
2022-08-05T08:36:29.409Z,101203.94
2022-08-05T08:37:27.835Z,101204.56
2022-08-05T08:38:35.454Z,101195.47
2022-08-05T08:39:38.237Z,101202.19
2022-08-05T08:40:52.334Z,101207.25
2022-08-05T08:42:00.208Z,101207.25
2022-08-05T08:45:19.551Z,101199.50
2022-08-05T08:45:25.092Z,101206.25
2022-08-05T08:45:55.101Z,101214.88
2022-08-05T08:46:57.448Z,101205.94
2022-08-05T08:48:12.805Z,101203.72
2022-08-05T08:50:23.269Z,101210.47
2022-08-05T08:51:04.010Z,101208.53
2022-08-05T08:52:14.364Z,101208.50
2022-08-05T08:53:17.983Z,101206.66
2022-08-05T08:54:21.061Z,101207.50
2022-08-05T08:55:32.017Z,101204.59
2022-08-05T08:56:52.194Z,101210.00
2022-08-05T08:58:00.886Z,101209.84
2022-08-05T08:59:08.357Z,101214.19
2022-08-05T09:00:19.435Z,101219.56
2022-08-05T09:01:22.402Z,101227.03
2022-08-05T09:02:26.841Z,101234.47
2022-08-05T09:03:40.710Z,101232.41
2022-08-05T09:05:16.459Z,101241.16
2022-08-05T09:06:11.555Z,101239.78
2022-08-05T09:07:19.649Z,101236.94
2022-08-05T09:08:31.006Z,101240.47
2022-08-05T09:09:35.656Z,101243.81
2022-08-05T09:10:40.904Z,101249.22
2022-08-05T09:11:51.176Z,101247.25
2022-08-05T09:13:04.543Z,101253.00
2022-08-05T09:14:54.024Z,101250.28
2022-08-05T09:15:30.998Z,101248.97
2022-08-05T09:16:33.236Z,101251.00
2022-08-05T09:17:40.793Z,101256.41
2022-08-05T09:18:44.916Z,101256.41
2022-08-05T09:19:55.230Z,101256.75
2022-08-05T09:21:11.680Z,101258.78
2022-08-05T09:22:31.725Z,101248.84
2022-08-05T09:23:43.437Z,101256.75
2022-08-05T09:24:58.069Z,101252.66
2022-08-05T09:26:09.246Z,101254.38
2022-08-05T09:28:04.170Z,101265.31
2022-08-05T09:28:55.351Z,101265.50
2022-08-05T09:30:04.620Z,101260.28
2022-08-05T09:31:44.159Z,101265.50
2022-08-05T09:32:40.694Z,101273.59
2022-08-05T09:33:50.910Z,101270.06
2022-08-05T09:34:54.967Z,101275.47
2022-08-05T09:35:59.221Z,101264.84
2022-08-05T09:37:01.868Z,101275.47
2022-08-05T09:38:12.631Z,101267.19
2022-08-05T09:39:22.473Z,101282.00
2022-08-05T09:40:32.428Z,101284.34
2022-08-05T09:41:39.125Z,101278.13
2022-08-05T09:42:44.071Z,101283.31
2022-08-05T09:43:51.177Z,101282.31
2022-08-05T09:44:56.805Z,101291.41
2022-08-05T09:46:06.007Z,101288.91
2022-08-05T09:47:15.650Z,101295.13
2022-08-05T09:48:29.221Z,101291.41
2022-08-05T09:49:54.742Z,101296.47
2022-08-05T09:50:56.679Z,101298.78
2022-08-05T09:51:58.263Z,101300.28
2022-08-05T09:53:01.620Z,101296.44
2022-08-05T09:54:08.339Z,101295.38
2022-08-05T09:55:57.872Z,101305.81
2022-08-05T09:56:37.890Z,101303.44
2022-08-05T09:57:43.416Z,101304.78
2022-08-05T09:58:57.504Z,101308.13
2022-08-05T10:00:05.971Z,101302.41
2022-08-05T10:01:31.430Z,101303.72
2022-08-05T10:02:38.980Z,101313.81
2022-08-05T10:03:58.630Z,101318.47
2022-08-05T10:05:08.287Z,101311.53
2022-08-05T10:06:15.596Z,101310.47
2022-08-05T10:07:20.366Z,101315.97
2022-08-05T10:08:42.513Z,101317.31
2022-08-05T10:10:15.197Z,101319.63
2022-08-05T10:11:18.563Z,101319.75
2022-08-05T10:12:33.255Z,101319.66
2022-08-05T10:13:45.572Z,101321.47
2022-08-05T10:14:50.891Z,101322.41
2022-08-05T10:15:58.186Z,101323.72
2022-08-05T10:17:37.692Z,101325.25
2022-08-05T10:18:38.944Z,101335.50
2022-08-05T10:20:04.534Z,101327.03
2022-08-05T10:21:11.974Z,101331.41
2022-08-05T10:22:29.678Z,101332.06
2022-08-05T10:23:59.924Z,101336.38
2022-08-05T10:24:56.332Z,101339.66
2022-08-05T10:26:00.221Z,101340.56
2022-08-05T10:27:01.895Z,101337.69
2022-08-05T10:28:13.937Z,101337.31
2022-08-05T10:29:24.052Z,101347.28
2022-08-05T10:32:49.379Z,101354.00
2022-08-05T10:32:54.989Z,101345.34
2022-08-05T10:33:35.150Z,101354.56
2022-08-05T10:34:44.819Z,101352.59
2022-08-05T10:36:00.037Z,101349.34
2022-08-05T10:37:03.370Z,101347.78
2022-08-05T10:38:06.495Z,101355.34
2022-08-05T10:39:20.401Z,101355.34
2022-08-05T10:40:33.615Z,101360.28
2022-08-05T10:41:45.314Z,101354.88
2022-08-05T10:42:53.207Z,101352.81
2022-08-05T10:44:02.355Z,101355.34
2022-08-05T10:45:21.530Z,101350.94
2022-08-05T10:46:45.388Z,101354.69
2022-08-05T10:48:29.932Z,101353.19
2022-08-05T10:49:16.457Z,101350.19
2022-08-05T10:50:35.283Z,101358.00
2022-08-05T10:51:59.926Z,101360.47
2022-08-05T10:53:03.171Z,101362.69
2022-08-05T10:54:23.105Z,101357.28
2022-08-05T10:55:30.345Z,101359.69
2022-08-05T10:56:44.851Z,101361.13
2022-08-05T10:57:47.766Z,101364.19
2022-08-05T10:59:12.172Z,101359.13
2022-08-05T11:00:19.792Z,101364.53
2022-08-05T11:01:55.470Z,101361.19
2022-08-05T11:03:25.979Z,101371.16
2022-08-05T11:04:30.725Z,101362.56
2022-08-05T11:05:34.702Z,101360.25
2022-08-05T11:07:06.782Z,101360.44
2022-08-05T11:08:33.786Z,101361.38
2022-08-05T11:09:45.553Z,101369.22
2022-08-05T11:11:01.498Z,101367.44
2022-08-05T11:12:45.377Z,101372.50
2022-08-05T11:13:54.744Z,101370.06
2022-08-05T11:15:19.733Z,101364.81
2022-08-05T11:16:47.617Z,101371.75
2022-08-05T11:17:59.346Z,101376.47
2022-08-05T11:20:10.310Z,101384.97
2022-08-05T11:20:51.943Z,101385.34
2022-08-05T11:21:54.423Z,101368.75
2022-08-05T11:23:05.930Z,101369.69
2022-08-05T11:24:29.736Z,101374.38
2022-08-05T11:26:04.711Z,101367.81
2022-08-05T11:27:45.796Z,101363.34
2022-08-05T11:28:55.733Z,101372.03
2022-08-05T11:30:00.962Z,101374.44
2022-08-05T11:31:54.381Z,101374.34
2022-08-05T11:33:26.050Z,101370.84
2022-08-05T11:34:51.125Z,101374.03
2022-08-05T11:36:07.951Z,101376.81
2022-08-05T11:38:29.692Z,101371.47
2022-08-05T11:38:54.554Z,101377.84
2022-08-05T11:40:03.411Z,101373.63
2022-08-05T11:41:35.390Z,101369.88
2022-08-05T11:42:29.729Z,101372.03
2022-08-05T11:44:04.968Z,101371.66
2022-08-05T11:45:02.223Z,101376.22
2022-08-05T11:46:27.019Z,101372.50
2022-08-05T11:47:49.283Z,101372.28
2022-08-05T11:48:50.010Z,101375.00
2022-08-05T11:49:58.469Z,101385.81
2022-08-05T11:51:01.704Z,101381.25
2022-08-05T11:52:11.372Z,101384.13
2022-08-05T11:53:13.746Z,101382.47
2022-08-05T11:54:33.194Z,101395.19
2022-08-05T11:55:36.965Z,101379.03
2022-08-05T11:56:50.301Z,101377.91
2022-08-05T11:58:09.357Z,101385.19
2022-08-05T11:59:16.131Z,101378.50
2022-08-05T12:00:28.875Z,101380.53
2022-08-05T12:01:31.791Z,101378.69
2022-08-05T12:02:36.131Z,101383.47
2022-08-05T12:03:43.629Z,101389.06
2022-08-05T12:05:00.183Z,101382.16
2022-08-05T12:06:06.046Z,101378.84
2022-08-05T12:07:11.347Z,101378.50
2022-08-05T12:08:18.120Z,101377.72
2022-08-05T12:09:52.542Z,101377.84
2022-08-05T12:10:50.361Z,101372.88
2022-08-05T12:11:55.198Z,101375.66
2022-08-05T12:13:03.778Z,101375.06
2022-08-05T12:14:18.708Z,101384.88
2022-08-05T12:15:38.021Z,101372.16
2022-08-05T12:16:45.510Z,101383.00
2022-08-05T12:18:09.887Z,101379.25
2022-08-05T12:20:25.724Z,101388.81
2022-08-05T12:20:38.436Z,101385.81
2022-08-05T12:21:48.176Z,101385.19
2022-08-05T12:22:51.876Z,101387.91
2022-08-05T12:24:00.093Z,101382.66
2022-08-05T12:25:06.866Z,101379.09
2022-08-05T12:26:09.335Z,101385.38
2022-08-05T12:27:21.688Z,101388.75
2022-08-05T12:28:31.366Z,101391.25
2022-08-05T12:29:38.695Z,101388.34
2022-08-05T12:30:45.643Z,101393.56
2022-08-05T12:31:53.435Z,101392.72
2022-08-05T12:32:58.602Z,101390.00
2022-08-05T12:34:20.654Z,101392.53
2022-08-05T12:35:24.777Z,101393.19
2022-08-05T12:36:42.595Z,101400.53
2022-08-05T12:37:47.557Z,101390.59
2022-08-05T12:38:51.433Z,101391.97
2022-08-05T12:40:03.737Z,101396.03
2022-08-05T12:41:16.172Z,101385.25
2022-08-05T12:42:20.707Z,101400.56
2022-08-05T12:43:22.460Z,101400.09
2022-08-05T12:44:33.642Z,101407.56
2022-08-05T12:45:48.196Z,101407.78
2022-08-05T12:46:54.257Z,101414.63
2022-08-05T12:48:01.543Z,101415.00
2022-08-05T12:49:19.042Z,101405.41
2022-08-05T12:50:23.823Z,101403.50
2022-08-05T12:52:10.320Z,101406.44
2022-08-05T12:53:00.399Z,101399.59
2022-08-05T12:54:04.902Z,101405.91
2022-08-05T12:55:25.053Z,101403.06
2022-08-05T12:56:35.245Z,101420.25
2022-08-05T12:58:39.045Z,101413.59
2022-08-05T12:59:20.997Z,101421.63
2022-08-05T13:02:00.419Z,101420.56
2022-08-05T13:02:07.418Z,101423.84
2022-08-05T13:03:12.172Z,101434.69
2022-08-05T13:04:21.007Z,101421.53
2022-08-05T13:05:23.605Z,101423.78
2022-08-05T13:06:27.328Z,101429.59
2022-08-05T13:07:57.306Z,101438.31
2022-08-05T13:08:55.006Z,101440.97
2022-08-05T13:09:59.852Z,101439.00
2022-08-05T13:11:04.183Z,101448.56
2022-08-05T13:12:08.688Z,101441.84
2022-08-05T13:14:06.341Z,101451.59
2022-08-05T13:14:43.921Z,101457.13
2022-08-05T13:15:51.225Z,101457.03
2022-08-05T13:16:56.558Z,101457.78
2022-08-05T13:17:59.230Z,101458.53
2022-08-05T13:19:02.658Z,101464.50
2022-08-05T13:20:08.733Z,101469.19
2022-08-05T13:21:10.392Z,101473.50
2022-08-05T13:22:28.351Z,101468.94
2022-08-05T13:23:32.605Z,101478.13
2022-08-05T13:24:51.128Z,101473.66
2022-08-05T13:26:01.857Z,101475.84
2022-08-05T13:27:03.842Z,101476.25
2022-08-05T13:28:07.833Z,101488.25
2022-08-05T13:29:19.147Z,101487.94
2022-08-05T13:30:38.889Z,101484.06